Time;durP1;ratioP1;P1;durP2;ratioP2;P2;SDS_P1;SDS_P2;PMS_P1;PMS_P2;Temp;Humidity;BMP_temperature;BMP_pressure;BME280_temperature;BME280_humidity;BME280_pressure;Samples;Min_cycle;Max_cycle;Signal;HPM_P1;HPM_P2
2021/03/09 00:01:05;;;;;;;13.57;8.65;;;1.30;99.90;;;;;;5013317;28;20033;-69
2021/03/09 00:03:30;;;;;;;15.27;9.45;;;1.30;99.90;;;;;;5012302;28;20109;-69
2021/03/09 00:05:56;;;;;;;12.15;8.82;;;1.30;99.90;;;;;;5013718;28;20062;-68
2021/03/09 00:08:21;;;;;;;11.05;8.90;;;1.20;99.90;;;;;;5013250;28;20028;-69
2021/03/09 00:10:47;;;;;;;11.07;9.00;;;1.30;99.90;;;;;;5012851;28;20061;-69
2021/03/09 00:13:12;;;;;;;11.05;8.85;;;1.20;99.90;;;;;;5012947;28;20029;-68
2021/03/09 00:15:38;;;;;;;11.20;9.15;;;1.20;99.90;;;;;;5013610;28;20474;-69
2021/03/09 00:18:04;;;;;;;9.75;8.38;;;1.10;99.90;;;;;;5013198;28;20030;-69
2021/03/09 00:20:29;;;;;;;14.02;10.05;;;1.10;99.90;;;;;;5013143;28;20080;-69
2021/03/09 00:22:55;;;;;;;10.68;9.20;;;1.10;99.90;;;;;;5012626;28;20022;-69
2021/03/09 00:25:21;;;;;;;15.13;9.98;;;1.00;99.90;;;;;;5013349;28;20029;-69
2021/03/09 00:27:47;;;;;;;14.38;9.35;;;1.00;99.90;;;;;;5014945;28;20045;-69
2021/03/09 00:30:14;;;;;;;13.23;9.52;;;1.00;99.90;;;;;;5017423;28;20028;-68
2021/03/09 00:32:39;;;;;;;13.43;10.13;;;0.90;99.90;;;;;;5017175;28;20026;-69
2021/03/09 00:35:05;;;;;;;13.15;9.45;;;0.90;99.90;;;;;;5017131;28;20029;-69
2021/03/09 00:37:31;;;;;;;12.38;10.20;;;0.90;99.90;;;;;;5016828;28;20112;-68
2021/03/09 00:39:56;;;;;;;12.43;10.80;;;0.90;99.90;;;;;;5017514;28;20394;-68
2021/03/09 00:42:22;;;;;;;12.90;11.45;;;0.90;99.90;;;;;;5016492;28;20018;-69
2021/03/09 00:44:48;;;;;;;19.10;12.18;;;0.90;99.90;;;;;;5018472;28;20022;-69
2021/03/09 00:47:13;;;;;;;22.35;15.15;;;0.90;99.90;;;;;;5017991;28;20078;-69
2021/03/09 00:49:39;;;;;;;20.55;13.20;;;0.80;99.90;;;;;;5000548;28;20210;-69
2021/03/09 00:52:05;;;;;;;15.05;11.82;;;0.80;99.90;;;;;;5018130;28;20068;-69
2021/03/09 00:54:30;;;;;;;15.75;11.65;;;0.80;99.90;;;;;;5017495;28;20063;-69
2021/03/09 00:56:56;;;;;;;16.02;11.30;;;0.80;99.90;;;;;;5016988;28;20062;-69
2021/03/09 00:59:21;;;;;;;16.23;11.25;;;0.80;99.90;;;;;;5016267;28;20030;-69
2021/03/09 01:01:47;;;;;;;14.75;11.02;;;0.80;99.90;;;;;;5016178;28;20113;-70
2021/03/09 01:04:12;;;;;;;13.65;9.52;;;0.80;99.90;;;;;;5016882;28;20029;-69
2021/03/09 01:06:38;;;;;;;14.55;10.77;;;0.70;99.90;;;;;;5017152;28;20470;-69
2021/03/09 01:09:04;;;;;;;13.93;10.70;;;0.70;99.90;;;;;;5017703;28;20022;-69
2021/03/09 01:11:29;;;;;;;12.88;10.13;;;0.70;99.90;;;;;;5017456;28;20053;-70
2021/03/09 01:13:55;;;;;;;12.65;9.35;;;0.60;99.90;;;;;;5015771;28;20504;-69
2021/03/09 01:16:20;;;;;;;14.82;10.02;;;0.60;99.90;;;;;;5016213;28;20532;-69
2021/03/09 01:18:46;;;;;;;15.30;9.60;;;0.70;99.90;;;;;;5016683;28;20030;-69
2021/03/09 01:21:12;;;;;;;13.82;10.00;;;0.60;99.90;;;;;;5015786;28;20088;-69
2021/03/09 01:23:37;;;;;;;14.85;11.43;;;0.60;99.90;;;;;;5015598;28;20033;-70
2021/03/09 01:26:03;;;;;;;18.27;10.70;;;0.60;99.90;;;;;;5015516;28;20026;-69
2021/03/09 01:28:28;;;;;;;15.88;10.43;;;0.70;99.90;;;;;;5014884;28;20029;-69
2021/03/09 01:30:54;;;;;;;15.90;10.55;;;0.70;99.90;;;;;;5013956;28;20030;-71
2021/03/09 01:33:20;;;;;;;14.02;10.90;;;0.70;99.90;;;;;;5017970;28;20026;-70
2021/03/09 01:35:45;;;;;;;14.68;11.25;;;0.70;99.90;;;;;;5024955;28;20030;-69
2021/03/09 01:38:11;;;;;;;24.92;12.02;;;0.70;99.90;;;;;;5022569;28;20033;-69
2021/03/09 01:40:36;;;;;;;14.00;10.23;;;0.70;99.90;;;;;;5021231;28;20038;-69
2021/03/09 01:43:03;;;;;;;16.50;9.95;;;0.60;99.90;;;;;;5021662;28;20044;-70
2021/03/09 01:45:29;;;;;;;13.13;9.18;;;0.70;99.90;;;;;;5021011;28;20113;-70
2021/03/09 01:48:00;;;;;;;14.00;9.55;;;0.60;99.90;;;;;;5026816;28;20026;-70
2021/03/09 01:50:27;;;;;;;16.15;10.07;;;0.70;99.90;;;;;;5000397;28;20038;-69
2021/03/09 01:52:53;;;;;;;17.30;11.32;;;0.60;99.90;;;;;;5018086;28;20052;-71
2021/03/09 01:55:19;;;;;;;13.00;9.50;;;0.60;99.90;;;;;;5018243;28;20076;-69
2021/03/09 01:57:45;;;;;;;15.43;11.68;;;0.60;99.90;;;;;;5019175;28;20425;-70
2021/03/09 02:00:11;;;;;;;15.57;11.30;;;0.60;99.90;;;;;;5016157;28;20144;-69
2021/03/09 02:02:37;;;;;;;14.15;10.30;;;0.50;99.90;;;;;;5014168;28;20028;-69
2021/03/09 02:05:08;;;;;;;16.30;10.00;;;0.50;99.90;;;;;;5015141;28;20018;-69
2021/03/09 02:07:34;;;;;;;14.23;10.55;;;0.50;99.90;;;;;;5015082;28;20544;-70
2021/03/09 02:10:00;;;;;;;14.15;11.00;;;0.50;99.90;;;;;;5013531;28;20029;-70
2021/03/09 02:12:51;;;;;;;11.93;9.55;;;0.50;99.90;;;;;;5014383;28;20520;-68
2021/03/09 02:15:39;;;;;;;13.40;10.20;;;0.50;99.90;;;;;;5006921;28;20128;-70
2021/03/09 02:18:19;;;;;;;16.95;11.13;;;0.40;99.90;;;;;;5014630;28;20117;-69
2021/03/09 02:21:06;;;;;;;16.87;10.63;;;0.40;99.90;;;;;;5014592;28;20064;-69
2021/03/09 02:23:52;;;;;;;17.25;9.75;;;0.40;99.90;;;;;;5014352;28;20018;-68
2021/03/09 02:27:03;;;;;;;15.68;9.88;;;0.40;99.90;;;;;;5014754;28;20025;-68
2021/03/09 02:29:41;;;;;;;14.93;10.52;;;0.40;99.90;;;;;;5013491;28;20036;-69
2021/03/09 02:32:12;;;;;;;19.95;10.50;;;0.40;99.90;;;;;;5014650;28;20026;-68
2021/03/09 02:34:48;;;;;;;20.10;11.85;;;0.30;99.90;;;;;;5014457;28;20029;-69
2021/03/09 02:37:16;;;;;;;14.82;11.02;;;0.30;99.90;;;;;;5015215;28;20026;-69
2021/03/09 02:39:45;;;;;;;20.33;11.45;;;0.20;99.90;;;;;;5014803;28;20030;-68
2021/03/09 02:42:15;;;;;;;15.40;10.20;;;0.20;99.90;;;;;;5014627;28;20022;-68
2021/03/09 02:44:42;;;;;;;14.95;11.23;;;0.30;99.90;;;;;;5014423;28;20108;-69
2021/03/09 02:47:12;;;;;;;17.23;10.02;;;0.20;99.90;;;;;;5013782;28;20029;-69
2021/03/09 02:49:41;;;;;;;13.10;10.38;;;0.20;99.90;;;;;;5013888;28;20025;-68
2021/03/09 02:52:07;;;;;;;13.13;10.57;;;0.20;99.90;;;;;;5014105;28;20061;-68
2021/03/09 02:54:35;;;;;;;13.82;10.90;;;0.20;99.90;;;;;;5013984;28;20097;-69
2021/03/09 02:57:02;;;;;;;13.88;9.55;;;0.20;99.90;;;;;;5013853;28;20068;-70
2021/03/09 02:59:30;;;;;;;13.88;9.30;;;0.20;99.90;;;;;;5014474;28;20489;-69
2021/03/09 03:01:56;;;;;;;13.43;9.90;;;0.20;99.90;;;;;;5014435;28;20478;-70
2021/03/09 03:04:23;;;;;;;16.35;10.63;;;0.10;99.90;;;;;;5014046;28;20485;-69
2021/03/09 03:06:50;;;;;;;15.23;11.50;;;0.20;99.90;;;;;;5014143;28;20075;-69
2021/03/09 03:09:18;;;;;;;15.90;11.70;;;0.20;99.90;;;;;;5014245;28;20018;-70
2021/03/09 03:11:45;;;;;;;17.15;11.30;;;0.20;99.90;;;;;;5014030;28;20053;-69
2021/03/09 03:14:12;;;;;;;19.70;10.88;;;0.20;99.90;;;;;;5013677;28;20022;-69
2021/03/09 03:16:39;;;;;;;15.23;11.35;;;0.20;99.90;;;;;;5013438;28;20034;-69
2021/03/09 03:19:08;;;;;;;14.52;11.35;;;0.20;99.90;;;;;;5013741;28;20061;-69
2021/03/09 03:21:38;;;;;;;15.65;10.40;;;0.20;99.90;;;;;;5013163;28;20022;-69
2021/03/09 03:24:06;;;;;;;19.48;10.68;;;0.20;99.90;;;;;;5013406;28;20061;-69
2021/03/09 03:26:35;;;;;;;13.23;9.32;;;0.10;99.90;;;;;;5013290;28;20104;-70
2021/03/09 03:29:04;;;;;;;14.32;10.02;;;0.10;99.90;;;;;;5013334;28;20076;-69
2021/03/09 03:31:30;;;;;;;15.63;11.10;;;0.10;99.90;;;;;;5013102;28;20036;-69
2021/03/09 03:33:56;;;;;;;14.07;10.65;;;0.10;99.90;;;;;;5013599;28;20393;-69
2021/03/09 03:36:22;;;;;;;14.60;10.63;;;0.00;99.90;;;;;;5012003;28;20022;-69
2021/03/09 03:38:48;;;;;;;12.60;10.15;;;0.00;99.90;;;;;;5013128;28;20022;-69
2021/03/09 03:41:14;;;;;;;18.85;11.55;;;0.10;99.90;;;;;;5013440;28;20501;-69
2021/03/09 03:43:39;;;;;;;19.98;9.63;;;0.10;99.90;;;;;;5013017;28;20029;-68
2021/03/09 03:46:07;;;;;;;11.57;9.32;;;0.00;99.90;;;;;;5012315;28;20545;-69
2021/03/09 03:48:34;;;;;;;14.57;10.40;;;0.00;99.90;;;;;;5015522;28;20389;-69
2021/03/09 03:51:02;;;;;;;13.30;10.27;;;0.00;99.90;;;;;;5017850;28;20034;-69
2021/03/09 03:53:55;;;;;;;16.45;10.75;;;0.10;99.90;;;;;;5014993;28;20021;-69
2021/03/09 03:56:42;;;;;;;17.02;11.57;;;0.00;99.90;;;;;;5016276;28;20022;-68
2021/03/09 03:59:12;;;;;;;15.02;11.13;;;0.00;99.90;;;;;;5016290;28;20053;-69
2021/03/09 04:01:39;;;;;;;16.58;11.50;;;-0.10;99.90;;;;;;5014010;28;20375;-69
2021/03/09 04:04:13;;;;;;;13.35;10.07;;;-0.10;99.90;;;;;;5018507;28;20505;-69
2021/03/09 04:06:46;;;;;;;14.07;11.70;;;-0.10;99.90;;;;;;5017938;28;20478;-68
2021/03/09 04:09:13;;;;;;;16.20;11.45;;;-0.20;99.90;;;;;;5019961;28;20029;-69
2021/03/09 04:11:40;;;;;;;14.70;11.13;;;-0.20;99.90;;;;;;5019388;28;20031;-69
2021/03/09 04:14:08;;;;;;;17.63;11.60;;;-0.20;99.90;;;;;;5018395;28;20049;-68
2021/03/09 04:16:35;;;;;;;19.42;11.73;;;-0.20;99.90;;;;;;5018954;28;20401;-68
2021/03/09 04:19:04;;;;;;;19.38;11.88;;;-0.20;99.90;;;;;;5018460;28;20108;-68
2021/03/09 04:21:31;;;;;;;17.50;12.45;;;-0.10;99.90;;;;;;5017396;28;20069;-68
2021/03/09 04:23:58;;;;;;;16.98;10.57;;;-0.20;99.90;;;;;;5015358;28;20026;-68
2021/03/09 04:26:24;;;;;;;13.80;10.82;;;-0.20;99.90;;;;;;5016345;28;20028;-70
2021/03/09 04:28:51;;;;;;;17.83;11.60;;;-0.20;99.90;;;;;;5016417;28;20076;-69
2021/03/09 04:31:18;;;;;;;19.00;11.43;;;-0.20;99.90;;;;;;5016538;28;20493;-68
2021/03/09 04:33:46;;;;;;;22.05;15.55;;;-0.20;99.90;;;;;;5016146;28;20509;-68
2021/03/09 04:36:12;;;;;;;16.38;11.25;;;-0.20;99.90;;;;;;5016208;28;20030;-68
2021/03/09 04:38:38;;;;;;;14.25;11.35;;;-0.20;99.90;;;;;;5016275;28;20036;-68
2021/03/09 04:41:04;;;;;;;18.83;10.90;;;0.00;99.90;;;;;;5018688;28;20034;-69
2021/03/09 04:43:30;;;;;;;16.48;11.50;;;-0.10;99.90;;;;;;5019072;28;20383;-70
2021/03/09 04:46:01;;;;;;;18.15;11.68;;;-0.20;99.90;;;;;;5020972;28;20045;-70
2021/03/09 04:48:28;;;;;;;17.75;10.85;;;-0.10;99.90;;;;;;5019956;28;20386;-69
2021/03/09 04:51:19;;;;;;;19.63;12.65;;;-0.10;99.90;;;;;;5017183;28;20505;-69
2021/03/09 04:53:46;;;;;;;16.52;11.38;;;-0.10;99.90;;;;;;5016432;28;20556;-69
2021/03/09 04:56:12;;;;;;;20.52;11.10;;;0.10;99.90;;;;;;5016187;28;20030;-69
2021/03/09 04:58:38;;;;;;;15.20;10.07;;;0.10;99.90;;;;;;5016308;28;20033;-69
2021/03/09 05:01:05;;;;;;;19.17;10.95;;;0.10;99.90;;;;;;5015837;28;20026;-69
2021/03/09 05:03:31;;;;;;;18.52;11.90;;;0.00;99.90;;;;;;5017334;28;20025;-69
2021/03/09 05:05:57;;;;;;;22.30;11.73;;;0.00;99.90;;;;;;5017843;28;20026;-69
2021/03/09 05:08:24;;;;;;;17.42;12.63;;;-0.10;99.90;;;;;;5015754;28;20034;-68
2021/03/09 05:10:49;;;;;;;15.68;11.80;;;-0.20;99.90;;;;;;5015856;28;20034;-68
2021/03/09 05:13:16;;;;;;;17.25;11.48;;;-0.30;99.90;;;;;;5015319;28;20156;-69
2021/03/09 05:15:42;;;;;;;17.52;11.27;;;0.00;99.90;;;;;;5015884;28;20030;-69
2021/03/09 05:18:08;;;;;;;12.77;10.88;;;0.00;99.90;;;;;;5015361;28;20033;-69
2021/03/09 05:20:33;;;;;;;15.48;12.10;;;0.00;99.90;;;;;;5013941;28;20482;-69
2021/03/09 05:22:59;;;;;;;16.80;12.82;;;-0.10;99.90;;;;;;5015952;28;20022;-69
2021/03/09 05:25:24;;;;;;;19.75;12.00;;;-0.20;99.90;;;;;;5016843;28;20045;-69
2021/03/09 05:27:50;;;;;;;16.65;11.57;;;-0.30;99.90;;;;;;5016286;28;20064;-69
2021/03/09 05:30:18;;;;;;;16.02;11.18;;;-0.40;99.90;;;;;;5016205;28;20029;-69
2021/03/09 05:32:45;;;;;;;20.52;11.55;;;-0.40;99.90;;;;;;5016158;28;20030;-70
2021/03/09 05:35:11;;;;;;;16.08;11.50;;;-0.40;99.90;;;;;;5017113;28;20504;-69
2021/03/09 05:37:37;;;;;;;14.88;11.48;;;-0.40;99.90;;;;;;5016788;28;20030;-68
2021/03/09 05:40:04;;;;;;;18.90;11.88;;;-0.40;99.90;;;;;;5016373;28;20049;-69
2021/03/09 05:42:30;;;;;;;17.25;12.20;;;-0.30;99.90;;;;;;5016084;28;20088;-69
2021/03/09 05:44:57;;;;;;;17.42;11.63;;;-0.30;99.90;;;;;;5015642;28;20533;-69
2021/03/09 05:47:23;;;;;;;18.45;11.27;;;-0.10;99.90;;;;;;5013895;28;20069;-70
2021/03/09 05:49:49;;;;;;;19.20;12.85;;;-0.20;99.90;;;;;;5015316;28;20029;-70
2021/03/09 05:52:18;;;;;;;15.23;11.50;;;-0.20;99.90;;;;;;5014904;28;20053;-68
2021/03/09 05:54:45;;;;;;;20.55;11.50;;;-0.20;99.90;;;;;;5015455;28;20109;-70
2021/03/09 05:57:11;;;;;;;16.00;12.25;;;-0.30;99.90;;;;;;5015197;28;20108;-68
2021/03/09 05:59:37;;;;;;;15.35;11.73;;;-0.30;99.90;;;;;;5015101;28;20112;-69
2021/03/09 06:02:03;;;;;;;18.10;12.57;;;-0.20;99.90;;;;;;5015094;28;20117;-69
2021/03/09 06:04:33;;;;;;;22.25;12.70;;;-0.10;99.90;;;;;;5019578;28;20021;-71
2021/03/09 06:06:58;;;;;;;18.67;11.85;;;0.00;99.90;;;;;;5023523;28;20022;-70
2021/03/09 06:09:42;;;;;;;22.00;12.43;;;-0.10;99.90;;;;;;5025345;28;20490;-69
2021/03/09 06:12:19;;;;;;;14.52;11.80;;;-0.20;99.90;;;;;;5020235;28;20026;-69
2021/03/09 06:15:00;;;;;;;21.75;13.55;;;-0.10;99.90;;;;;;5018673;28;20110;-69
2021/03/09 06:17:34;;;;;;;21.70;12.60;;;0.00;99.90;;;;;;5015972;28;20018;-68
2021/03/09 06:20:00;;;;;;;17.05;12.48;;;0.00;99.90;;;;;;5015228;28;20072;-69
2021/03/09 06:22:39;;;;;;;14.02;11.07;;;0.00;99.90;;;;;;5015166;28;20113;-69
2021/03/09 06:25:07;;;;;;;21.17;12.50;;;0.10;99.90;;;;;;5022344;28;20033;-69
2021/03/09 06:27:34;;;;;;;21.75;12.10;;;0.00;99.90;;;;;;5022952;28;20061;-69
2021/03/09 06:30:00;;;;;;;16.75;12.13;;;0.00;99.90;;;;;;5015823;28;20057;-69
2021/03/09 06:32:37;;;;;;;17.40;11.80;;;0.10;99.90;;;;;;5015052;28;20120;-69
2021/03/09 06:35:03;;;;;;;16.35;10.95;;;0.30;99.90;;;;;;5014523;28;20548;-69
2021/03/09 06:37:28;;;;;;;18.55;12.20;;;0.30;99.90;;;;;;5014342;28;20025;-69
2021/03/09 06:39:57;;;;;;;21.23;12.20;;;0.30;99.90;;;;;;5013033;28;20550;-69
2021/03/09 06:42:35;;;;;;;19.60;12.10;;;0.50;99.90;;;;;;5013989;28;20026;-68
2021/03/09 06:45:03;;;;;;;19.27;13.27;;;0.60;99.90;;;;;;5015984;28;20037;-69
2021/03/09 06:47:32;;;;;;;21.15;11.85;;;0.70;99.90;;;;;;5013292;28;20474;-69
2021/03/09 06:49:58;;;;;;;18.17;12.75;;;0.60;99.90;;;;;;5014133;28;20034;-68
2021/03/09 06:52:24;;;;;;;19.77;12.32;;;0.50;99.90;;;;;;5014669;28;20022;-69
2021/03/09 06:54:52;;;;;;;19.50;12.07;;;0.60;99.90;;;;;;5014258;28;20030;-69
2021/03/09 06:57:18;;;;;;;27.95;12.30;;;0.70;99.90;;;;;;5013121;28;20494;-69
2021/03/09 06:59:48;;;;;;;27.55;12.73;;;0.80;99.90;;;;;;5013931;28;20478;-69
2021/03/09 07:02:23;;;;;;;18.35;11.70;;;0.80;99.90;;;;;;5014389;28;20053;-69
2021/03/09 07:04:50;;;;;;;22.05;12.45;;;1.00;99.90;;;;;;5013722;28;20490;-69
2021/03/09 07:07:35;;;;;;;22.50;12.55;;;1.20;99.90;;;;;;5013945;28;20026;-69
2021/03/09 07:10:18;;;;;;;21.27;12.35;;;1.10;99.90;;;;;;5012914;28;20056;-69
2021/03/09 07:12:48;;;;;;;26.48;12.13;;;1.10;99.90;;;;;;5015791;28;20382;-69
2021/03/09 07:15:19;;;;;;;19.23;11.90;;;1.20;99.90;;;;;;5015097;28;20033;-70
2021/03/09 07:17:47;;;;;;;22.08;12.45;;;1.30;99.90;;;;;;5016890;28;20049;-69
2021/03/09 07:20:14;;;;;;;15.00;12.05;;;1.40;99.90;;;;;;5014894;28;20034;-69
2021/03/09 07:22:42;;;;;;;20.52;12.13;;;1.30;99.90;;;;;;5015478;28;20037;-69
2021/03/09 07:25:17;;;;;;;18.83;12.07;;;1.30;99.90;;;;;;5015162;28;20385;-69
2021/03/09 07:27:57;;;;;;;24.15;12.98;;;1.40;99.90;;;;;;5015699;28;20034;-69
2021/03/09 07:30:29;;;;;;;17.45;12.05;;;1.40;99.90;;;;;;5016498;28;20083;-69
2021/03/09 07:32:56;;;;;;;22.27;12.13;;;1.60;99.90;;;;;;5017097;28;20033;-70
2021/03/09 07:35:28;;;;;;;15.35;12.05;;;1.50;99.90;;;;;;5018239;28;20040;-69
2021/03/09 07:37:54;;;;;;;23.88;12.57;;;1.80;99.90;;;;;;5017047;28;20050;-68
2021/03/09 07:40:23;;;;;;;21.63;11.75;;;2.00;99.90;;;;;;5015431;28;20030;-69
2021/03/09 07:42:49;;;;;;;23.10;12.93;;;2.00;99.90;;;;;;5016124;28;20026;-72
2021/03/09 07:45:17;;;;;;;32.55;13.23;;;2.30;99.90;;;;;;5016339;28;20164;-69
2021/03/09 07:48:01;;;;;;;27.23;11.98;;;2.40;99.90;;;;;;5015848;28;20022;-68
2021/03/09 07:50:36;;;;;;;20.05;13.93;;;2.50;99.90;;;;;;5017430;28;20026;-69
2021/03/09 07:53:12;;;;;;;25.70;14.00;;;2.30;99.90;;;;;;5017028;28;20425;-70
2021/03/09 07:55:45;;;;;;;26.17;14.35;;;2.50;99.90;;;;;;5014539;28;20037;-69
2021/03/09 07:58:23;;;;;;;20.80;13.95;;;2.80;99.90;;;;;;5017810;28;20029;-69
2021/03/09 08:00:56;;;;;;;26.48;14.23;;;3.00;92.80;;;;;;5017145;28;20026;-69
2021/03/09 08:03:42;;;;;;;22.20;14.80;;;2.90;85.20;;;;;;5015966;28;20026;-69
2021/03/09 08:06:12;;;;;;;28.77;14.85;;;2.80;99.90;;;;;;5015333;28;20019;-69
2021/03/09 08:08:51;;;;;;;29.42;13.68;;;3.20;75.50;;;;;;5019426;28;20163;-70
2021/03/09 08:11:19;;;;;;;24.65;13.10;;;3.40;75.10;;;;;;5017152;28;20030;-69
2021/03/09 08:13:47;;;;;;;25.17;15.60;;;2.90;92.50;;;;;;5015999;28;20085;-69
2021/03/09 08:16:23;;;;;;;22.65;14.65;;;2.70;99.90;;;;;;5018347;28;20030;-70
2021/03/09 08:18:54;;;;;;;26.27;15.05;;;2.70;99.90;;;;;;5016380;28;20026;-69
2021/03/09 08:21:40;;;;;;;23.42;14.10;;;2.60;99.90;;;;;;5016097;28;20022;-68
2021/03/09 08:24:07;;;;;;;26.20;14.93;;;2.90;99.90;;;;;;5016040;28;20100;-68
2021/03/09 08:26:32;;;;;;;22.85;15.38;;;3.00;99.90;;;;;;5014088;28;20401;-69
2021/03/09 08:28:58;;;;;;;24.40;15.98;;;3.00;99.90;;;;;;5015026;28;20033;-69
2021/03/09 08:31:26;;;;;;;22.58;15.73;;;3.10;99.90;;;;;;5018523;28;20022;-69
2021/03/09 08:34:07;;;;;;;23.08;16.42;;;3.60;59.40;;;;;;5020457;28;20037;-69
2021/03/09 08:36:35;;;;;;;20.73;15.82;;;4.00;1.00;;;;;;5020588;28;20045;-69
2021/03/09 08:39:01;;;;;;;24.05;16.33;;;4.20;1.00;;;;;;5022951;28;20026;-69
2021/03/09 08:41:36;;;;;;;22.70;14.93;;;4.20;1.00;;;;;;5025199;28;20096;-69
2021/03/09 08:44:16;;;;;;;26.77;15.40;;;4.50;1.00;;;;;;5023298;28;20026;-69
2021/03/09 08:47:13;;;;;;;28.63;16.35;;;4.50;1.00;;;;;;5029016;28;20079;-69
2021/03/09 08:49:45;;;;;;;23.75;16.98;;;4.10;1.00;;;;;;5025445;28;20026;-69
2021/03/09 08:52:40;;;;;;;23.30;15.57;;;4.10;19.10;;;;;;5028809;28;20022;-68
2021/03/09 08:55:07;;;;;;;30.15;15.77;;;4.30;1.00;;;;;;5024690;28;20022;-69
2021/03/09 08:57:32;;;;;;;22.77;16.42;;;5.00;1.00;;;;;;5018701;28;20139;-68
2021/03/09 09:00:05;;;;;;;28.90;16.83;;;5.30;99.90;;;;;;5001669;28;20497;-68
2021/03/09 09:02:31;;;;;;;21.08;15.35;;;5.40;99.90;;;;;;5020801;28;20050;-69
2021/03/09 09:05:06;;;;;;;24.15;15.88;;;5.20;1.00;;;;;;5020269;28;20442;-69
2021/03/09 09:07:36;;;;;;;25.77;16.27;;;5.50;99.90;;;;;;5021043;28;20028;-71
2021/03/09 09:10:19;;;;;;;22.75;16.80;;;5.30;99.90;;;;;;5021930;28;20041;-70
2021/03/09 09:12:47;;;;;;;21.70;16.10;;;5.40;1.00;;;;;;5024183;28;20049;-69
2021/03/09 09:15:22;;;;;;;23.30;17.20;;;6.00;99.90;;;;;;5023776;28;20129;-69
2021/03/09 09:17:57;;;;;;;25.30;15.82;;;6.00;99.90;;;;;;5022465;28;20026;-70
2021/03/09 09:20:47;;;;;;;21.90;15.25;;;6.10;99.90;;;;;;5021054;28;20022;-70
2021/03/09 09:23:18;;;;;;;24.30;16.35;;;6.20;99.90;;;;;;5020988;28;20026;-69
2021/03/09 09:25:46;;;;;;;20.05;15.52;;;5.80;99.90;;;;;;5025792;28;20081;-70
2021/03/09 09:28:24;;;;;;;23.55;16.13;;;5.90;99.90;;;;;;5018117;28;20029;-70
2021/03/09 09:30:50;;;;;;;26.17;17.42;;;5.60;99.90;;;;;;5021419;28;20030;-70
2021/03/09 09:33:16;;;;;;;23.63;15.63;;;5.80;99.90;;;;;;5018855;28;20030;-70
2021/03/09 09:35:42;;;;;;;23.88;16.52;;;5.50;99.90;;;;;;5017583;28;20036;-70
2021/03/09 09:38:10;;;;;;;25.30;16.80;;;5.80;99.90;;;;;;5018341;28;20026;-70
2021/03/09 09:40:44;;;;;;;27.10;15.75;;;6.30;99.90;;;;;;5017365;28;20026;-69
2021/03/09 09:43:12;;;;;;;20.20;15.50;;;5.90;99.90;;;;;;5016838;28;20022;-69
2021/03/09 09:45:43;;;;;;;25.00;16.30;;;6.40;64.10;;;;;;5017784;28;20101;-69
2021/03/09 09:48:13;;;;;;;22.92;18.05;;;6.60;1.00;;;;;;5017800;28;20044;-69
2021/03/09 09:50:52;;;;;;;20.67;16.38;;;6.50;1.00;;;;;;5017093;28;20018;-70
2021/03/09 09:53:40;;;;;;;22.90;16.85;;;5.90;99.90;;;;;;5017652;28;20045;-69
2021/03/09 09:56:11;;;;;;;23.65;16.33;;;5.90;99.90;;;;;;5017514;28;20523;-69
2021/03/09 09:58:51;;;;;;;24.40;17.60;;;5.90;99.90;;;;;;5017056;28;20044;-69
2021/03/09 10:01:18;;;;;;;20.83;16.67;;;6.50;99.90;;;;;;5017478;28;20034;-69
2021/03/09 10:04:03;;;;;;;21.08;16.48;;;6.60;99.90;;;;;;5018032;28;20054;-71
2021/03/09 10:06:42;;;;;;;23.92;17.27;;;7.00;1.00;;;;;;5024648;28;20018;-69
2021/03/09 10:09:10;;;;;;;21.42;15.85;;;7.30;99.90;;;;;;5031517;28;20048;-69
2021/03/09 10:11:50;;;;;;;28.17;16.95;;;7.40;99.90;;;;;;5033424;28;20072;-69
2021/03/09 10:14:17;;;;;;;23.77;16.77;;;7.50;99.90;;;;;;5032933;28;20076;-68
2021/03/09 10:16:44;;;;;;;25.83;18.30;;;7.20;99.90;;;;;;5032664;28;20022;-68
2021/03/09 10:19:18;;;;;;;19.55;15.73;;;6.80;1.00;;;;;;5033316;28;20037;-69
2021/03/09 10:22:15;;;;;;;25.63;15.13;;;7.00;1.00;;;;;;5033627;28;20041;-69
2021/03/09 10:24:40;;;;;;;18.33;15.20;;;7.20;99.90;;;;;;5034204;28;20076;-70
2021/03/09 10:27:13;;;;;;;22.15;16.08;;;7.30;99.90;;;;;;5050515;23;20042;-72
2021/03/09 10:29:39;;;;;;;22.40;15.43;;;7.90;99.90;;;;;;5015784;28;20034;-71
2021/03/09 10:32:12;;;;;;;18.65;15.45;;;7.80;99.90;;;;;;5015434;28;20355;-73
2021/03/09 10:34:48;;;;;;;24.30;14.45;;;8.20;1.00;;;;;;5016066;28;20029;-72
2021/03/09 10:37:19;;;;;;;17.10;14.80;;;8.30;99.90;;;;;;5018416;28;20369;-72
2021/03/09 10:39:58;;;;;;;23.80;15.65;;;8.10;99.90;;;;;;5022458;28;20030;-72
2021/03/09 10:42:25;;;;;;;19.52;14.68;;;7.80;30.40;;;;;;5018965;28;20032;-72
2021/03/09 10:44:51;;;;;;;18.60;15.35;;;7.30;99.90;;;;;;5018951;28;20037;-71
2021/03/09 10:47:17;;;;;;;21.98;14.98;;;7.70;99.90;;;;;;5018848;28;20018;-71
2021/03/09 10:49:42;;;;;;;18.70;15.68;;;7.50;25.00;;;;;;5016787;28;20086;-71
2021/03/09 10:52:08;;;;;;;22.27;14.90;;;7.40;99.90;;;;;;5016438;28;20026;-72
2021/03/09 10:54:38;;;;;;;25.00;14.43;;;7.60;99.90;;;;;;5014289;28;20026;-72
2021/03/09 10:57:09;;;;;;;18.63;14.68;;;7.80;1.00;;;;;;5014865;28;20053;-72
2021/03/09 10:59:35;;;;;;;20.77;14.57;;;8.70;82.80;;;;;;5014741;28;20025;-71
2021/03/09 11:02:01;;;;;;;20.92;14.25;;;8.60;99.90;;;;;;5013923;28;20397;-72
2021/03/09 11:04:26;;;;;;;26.60;15.07;;;8.60;99.90;;;;;;5013679;28;20157;-72
2021/03/09 11:06:52;;;;;;;22.95;14.25;;;8.40;99.90;;;;;;5014092;28;20018;-72
2021/03/09 11:09:18;;;;;;;21.55;15.32;;;8.10;99.90;;;;;;5013309;28;20018;-73
2021/03/09 11:11:45;;;;;;;19.90;15.10;;;7.90;1.00;;;;;;5014407;28;20568;-72
2021/03/09 11:14:11;;;;;;;19.88;14.68;;;8.10;99.90;;;;;;5014341;28;20485;-71
2021/03/09 11:16:37;;;;;;;22.52;15.13;;;8.50;3.40;;;;;;5013752;28;20026;-72
2021/03/09 11:19:02;;;;;;;18.92;14.10;;;8.50;99.90;;;;;;5013158;28;20083;-71
2021/03/09 11:21:29;;;;;;;16.45;13.18;;;8.40;1.00;;;;;;5011972;28;20026;-72
2021/03/09 11:23:55;;;;;;;17.35;14.40;;;8.40;1.00;;;;;;5013463;28;20026;-71
2021/03/09 11:26:23;;;;;;;18.13;14.18;;;8.30;99.90;;;;;;5013218;28;20033;-71
2021/03/09 11:28:51;;;;;;;18.92;14.15;;;8.00;14.70;;;;;;5013466;28;20030;-72
2021/03/09 11:31:17;;;;;;;17.20;13.48;;;8.20;99.90;;;;;;5013401;28;20037;-71
2021/03/09 11:33:43;;;;;;;21.83;13.85;;;8.70;99.90;;;;;;5013203;28;20400;-72
2021/03/09 11:36:12;;;;;;;31.45;16.38;;;9.20;1.00;;;;;;5013716;28;20165;-72
2021/03/09 11:38:41;;;;;;;15.73;12.38;;;9.30;99.90;;;;;;5013380;28;20485;-71
2021/03/09 11:41:08;;;;;;;19.25;13.35;;;9.50;1.00;;;;;;5013432;28;20112;-72
2021/03/09 11:43:34;;;;;;;14.88;11.43;;;9.40;1.00;;;;;;5013585;28;20367;-72
2021/03/09 11:46:00;;;;;;;18.00;12.50;;;9.40;1.00;;;;;;5013913;28;20361;-72
2021/03/09 11:48:25;;;;;;;13.88;11.73;;;9.20;99.90;;;;;;5015182;28;20097;-73
2021/03/09 11:50:51;;;;;;;13.95;11.82;;;9.50;1.00;;;;;;5013706;28;20053;-72
2021/03/09 11:53:17;;;;;;;11.18;9.98;;;9.40;99.90;;;;;;5012231;28;20061;-72
2021/03/09 11:55:43;;;;;;;11.25;10.13;;;9.60;1.00;;;;;;5013923;28;20087;-72
2021/03/09 11:58:08;;;;;;;11.65;10.43;;;9.50;1.00;;;;;;5014926;28;20036;-72
2021/03/09 12:00:34;;;;;;;12.73;10.30;;;9.10;99.90;;;;;;5013750;28;20117;-72
2021/03/09 12:02:59;;;;;;;12.15;10.07;;;9.00;99.90;;;;;;5014901;28;20034;-73
2021/03/09 12:05:25;;;;;;;11.93;10.27;;;9.50;1.00;;;;;;5015208;28;20062;-70
2021/03/09 12:07:51;;;;;;;9.40;8.25;;;9.40;99.90;;;;;;5013604;28;20022;-72
2021/03/09 12:10:16;;;;;;;9.73;8.73;;;9.80;99.90;;;;;;5016058;28;20030;-72
2021/03/09 12:12:44;;;;;;;9.38;8.48;;;10.00;1.00;;;;;;5013719;28;20117;-72
2021/03/09 12:15:10;;;;;;;11.00;8.35;;;9.90;1.00;;;;;;5013127;28;20037;-72
2021/03/09 12:17:36;;;;;;;9.45;8.43;;;10.00;1.00;;;;;;5012782;28;20161;-72
2021/03/09 12:20:03;;;;;;;14.35;8.77;;;10.30;1.00;;;;;;5012613;28;20105;-72
2021/03/09 12:22:29;;;;;;;8.57;7.78;;;10.50;99.90;;;;;;5013075;28;20482;-74
2021/03/09 12:24:54;;;;;;;9.27;8.38;;;9.90;99.90;;;;;;5017758;28;20109;-72
2021/03/09 12:27:20;;;;;;;10.25;8.60;;;9.50;1.00;;;;;;5016180;28;20406;-72
2021/03/09 12:29:45;;;;;;;9.50;8.27;;;10.10;1.00;;;;;;5016724;28;20057;-72
2021/03/09 12:32:11;;;;;;;10.88;8.55;;;9.50;1.00;;;;;;5016245;28;20034;-73
2021/03/09 12:34:37;;;;;;;10.23;8.38;;;9.50;1.00;;;;;;5016773;28;20030;-72
2021/03/09 12:37:03;;;;;;;11.80;8.57;;;10.10;1.00;;;;;;5016785;28;20049;-74
2021/03/09 12:39:29;;;;;;;10.73;8.38;;;9.90;1.00;;;;;;5016728;28;20034;-71
2021/03/09 12:41:55;;;;;;;10.40;9.32;;;10.20;1.00;;;;;;5016802;28;20034;-72
2021/03/09 12:44:20;;;;;;;9.88;7.60;;;10.40;99.90;;;;;;5016469;28;20049;-71
2021/03/09 12:46:46;;;;;;;9.50;8.60;;;10.50;99.90;;;;;;5016775;28;20453;-72
2021/03/09 12:49:12;;;;;;;11.93;9.07;;;10.20;99.90;;;;;;5016542;28;20379;-71